Time;durP1;ratioP1;P1;durP2;ratioP2;P2;SDS_P1;SDS_P2;PMS_P1;PMS_P2;Temp;Humidity;BMP_temperature;BMP_pressure;BME280_temperature;BME280_humidity;BME280_pressure;Samples;Min_cycle;Max_cycle;Signal;HPM_P1;HPM_P2
2020/12/10 00:02:01;;;;;;;51.90;25.17;;;3.80;99.90;;;4.78;100.00;99551.22;4763676;30;20250;-60
2020/12/10 00:04:29;;;;;;;53.30;25.33;;;3.80;99.90;;;4.88;100.00;99546.34;4770008;30;20211;-59
2020/12/10 00:06:57;;;;;;;46.40;23.33;;;3.90;99.90;;;4.83;100.00;99546.94;4769855;30;20284;-59
2020/12/10 00:09:24;;;;;;;49.27;24.47;;;3.80;99.90;;;4.68;100.00;99543.59;4769870;30;20245;-59
2020/12/10 00:11:51;;;;;;;49.37;23.63;;;3.80;99.90;;;4.75;100.00;99546.28;4769428;30;20620;-59
2020/12/10 00:14:18;;;;;;;50.97;24.33;;;3.80;99.90;;;4.78;100.00;99548.56;4769552;30;20313;-60
2020/12/10 00:16:47;;;;;;;48.37;24.67;;;3.80;99.90;;;4.72;100.00;99550.16;4769608;30;20300;-59
2020/12/10 00:19:14;;;;;;;47.30;24.30;;;3.80;99.90;;;4.70;100.00;99557.53;4769784;30;20213;-59
2020/12/10 00:21:42;;;;;;;49.43;24.73;;;3.80;99.90;;;4.45;100.00;99553.69;4769339;30;20660;-60
2020/12/10 00:24:09;;;;;;;50.10;24.67;;;3.70;99.90;;;4.58;100.00;99547.63;4769743;30;20307;-59
2020/12/10 00:26:37;;;;;;;49.03;24.57;;;3.70;99.90;;;4.55;100.00;99545.34;4769496;30;20712;-58
2020/12/10 00:29:04;;;;;;;49.87;24.50;;;3.70;99.90;;;4.62;100.00;99539.03;4769198;30;20753;-60
2020/12/10 00:31:31;;;;;;;48.60;24.23;;;3.70;99.90;;;4.68;100.00;99537.41;4769601;30;20216;-59
2020/12/10 00:34:00;;;;;;;49.63;25.67;;;3.60;99.90;;;4.27;100.00;99532.03;4769438;30;20271;-59
2020/12/10 00:36:28;;;;;;;50.57;25.03;;;3.50;99.90;;;4.43;100.00;99525.59;4769425;30;20629;-60
2020/12/10 00:38:55;;;;;;;54.80;25.27;;;3.50;99.90;;;4.42;100.00;99538.09;4769646;30;20214;-59
2020/12/10 00:41:22;;;;;;;50.17;25.67;;;3.50;99.90;;;4.23;100.00;99538.78;4769546;30;20331;-59
2020/12/10 00:43:50;;;;;;;53.97;25.90;;;3.50;99.90;;;4.34;100.00;99537.41;4769335;30;20212;-60
2020/12/10 00:46:17;;;;;;;52.57;25.93;;;3.50;99.90;;;4.41;100.00;99539.13;4769549;30;20630;-59
2020/12/10 00:48:45;;;;;;;52.23;25.37;;;3.50;99.90;;;4.32;100.00;99536.78;4769155;30;20601;-59
2020/12/10 00:51:13;;;;;;;54.83;24.37;;;3.50;99.90;;;4.50;100.00;99537.94;4769120;30;20224;-60
2020/12/10 00:53:40;;;;;;;51.80;26.73;;;3.50;99.90;;;4.60;100.00;99530.38;4769482;30;20245;-59
2020/12/10 00:56:08;;;;;;;47.90;26.00;;;3.60;99.90;;;4.61;100.00;99532.06;4768952;30;20735;-59
2020/12/10 00:58:35;;;;;;;56.33;26.90;;;3.60;99.90;;;4.56;100.00;99528.31;4769277;30;20237;-59
2020/12/10 01:01:03;;;;;;;49.80;24.43;;;3.60;99.90;;;4.43;100.00;99525.59;4769045;30;20321;-59
2020/12/10 01:03:30;;;;;;;51.60;25.03;;;3.60;99.90;;;4.41;100.00;99533.78;4769434;30;20289;-59
2020/12/10 01:05:58;;;;;;;51.67;25.73;;;3.50;99.90;;;4.47;100.00;99537.50;4769299;30;20215;-59
2020/12/10 01:08:27;;;;;;;57.80;26.43;;;3.60;99.90;;;4.44;100.00;99537.88;4769471;30;20208;-58
2020/12/10 01:10:55;;;;;;;57.27;25.53;;;3.50;99.90;;;4.39;100.00;99541.16;4768996;30;20211;-58
2020/12/10 01:13:23;;;;;;;50.07;25.80;;;3.50;99.90;;;4.32;100.00;99534.94;4769122;30;20306;-59
2020/12/10 01:15:54;;;;;;;59.93;25.83;;;3.50;99.90;;;4.27;100.00;99529.38;4769084;30;20304;-59
2020/12/10 01:18:22;;;;;;;58.53;26.47;;;3.40;99.90;;;4.28;100.00;99524.88;4769136;30;20197;-58
2020/12/10 01:20:50;;;;;;;59.50;26.17;;;3.40;99.90;;;4.33;100.00;99519.78;4769022;30;20240;-59
2020/12/10 01:23:17;;;;;;;55.93;25.87;;;3.40;99.90;;;4.27;100.00;99517.88;4769271;30;20216;-58
2020/12/10 01:25:46;;;;;;;55.40;26.33;;;3.40;99.90;;;4.50;100.00;99511.25;4769111;30;20213;-59
2020/12/10 01:28:13;;;;;;;61.30;28.37;;;3.50;99.90;;;4.56;100.00;99510.50;4771789;30;20272;-60
2020/12/10 01:30:41;;;;;;;57.97;27.63;;;3.50;99.90;;;4.49;100.00;99506.13;4772136;30;20682;-59
2020/12/10 01:33:08;;;;;;;51.97;25.20;;;3.50;99.90;;;4.48;100.00;99507.16;4772095;30;20220;-59
2020/12/10 01:35:36;;;;;;;54.83;26.77;;;3.50;99.90;;;4.37;100.00;99505.84;4772250;30;20300;-59
2020/12/10 01:38:05;;;;;;;51.80;26.43;;;3.50;99.90;;;4.17;100.00;99512.91;4772318;30;20291;-60
2020/12/10 01:40:51;;;;;;;54.33;26.57;;;3.40;99.90;;;4.31;100.00;99506.63;4772143;30;20217;-59
2020/12/10 01:43:18;;;;;;;59.17;26.40;;;3.40;99.90;;;4.27;100.00;99501.88;4772374;30;20198;-58
2020/12/10 01:45:46;;;;;;;52.20;25.73;;;3.40;99.90;;;4.45;100.00;99516.34;4771891;30;20643;-59
2020/12/10 01:48:13;;;;;;;52.00;25.53;;;3.40;99.90;;;4.33;100.00;99507.25;4771925;30;20215;-58
2020/12/10 01:50:40;;;;;;;58.92;31.30;;;3.40;99.90;;;4.37;100.00;99500.53;4770815;30;20479;-60
2020/12/10 01:53:08;;;;;;;57.73;27.70;;;3.40;99.90;;;4.40;100.00;99500.13;4771830;30;20214;-59
2020/12/10 01:55:36;;;;;;;51.80;26.17;;;3.40;99.90;;;4.44;100.00;99497.91;4771762;30;20213;-60
2020/12/10 01:58:04;;;;;;;50.13;25.87;;;3.40;99.90;;;4.54;100.00;99501.03;4772028;30;20249;-59
2020/12/10 02:00:31;;;;;;;54.93;26.93;;;3.50;99.90;;;4.55;100.00;99500.81;4771733;30;20233;-59
2020/12/10 02:02:59;;;;;;;55.10;26.83;;;3.50;99.90;;;4.37;100.00;99497.84;4771537;30;20719;-59
2020/12/10 02:05:27;;;;;;;54.97;26.40;;;3.50;99.90;;;4.46;100.00;99499.34;4771916;30;20222;-59
2020/12/10 02:07:55;;;;;;;47.77;24.13;;;3.40;99.90;;;4.41;100.00;99499.13;4771516;30;20226;-59
2020/12/10 02:10:22;;;;;;;52.60;25.33;;;3.50;99.90;;;4.27;100.00;99500.06;4771715;30;20217;-59
2020/12/10 02:12:49;;;;;;;54.93;25.67;;;3.40;99.90;;;4.45;100.00;99495.03;4771509;30;20304;-58
2020/12/10 02:15:17;;;;;;;54.13;25.73;;;3.40;99.90;;;4.45;100.00;99489.69;4771463;30;20311;-59
2020/12/10 02:17:44;;;;;;;48.97;24.43;;;3.40;99.90;;;4.47;100.00;99486.84;4771722;30;20251;-59
2020/12/10 02:20:12;;;;;;;52.63;25.90;;;3.40;99.90;;;4.43;100.00;99480.25;4771259;30;20277;-58
2020/12/10 02:22:39;;;;;;;55.20;25.63;;;3.40;99.90;;;4.21;100.00;99474.16;4770896;30;20218;-58
2020/12/10 02:25:07;;;;;;;52.77;24.07;;;3.40;99.90;;;4.17;100.00;99478.25;4771375;30;20252;-59
2020/12/10 02:27:34;;;;;;;55.97;25.83;;;3.30;99.90;;;4.37;100.00;99471.19;4771057;30;20298;-59
2020/12/10 02:30:02;;;;;;;48.33;24.23;;;3.40;99.90;;;4.44;100.00;99472.06;4771496;30;20212;-59
2020/12/10 02:32:29;;;;;;;47.93;24.70;;;3.40;99.90;;;4.35;100.00;99473.22;4771046;30;20325;-58
2020/12/10 02:34:56;;;;;;;48.67;24.60;;;3.40;99.90;;;4.21;100.00;99474.16;4771438;30;20243;-59
2020/12/10 02:37:24;;;;;;;53.63;25.17;;;3.30;99.90;;;4.30;100.00;99478.34;4771050;30;20341;-59
2020/12/10 02:39:51;;;;;;;53.20;25.60;;;3.30;99.90;;;4.14;100.00;99465.34;4771182;30;20304;-59
2020/12/10 02:42:21;;;;;;;46.00;24.17;;;3.30;99.90;;;4.39;100.00;99466.50;4771002;30;20319;-59
2020/12/10 02:44:50;;;;;;;53.57;25.23;;;3.30;99.90;;;4.14;100.00;99465.34;4771248;30;20202;-59
2020/12/10 02:47:17;;;;;;;50.90;23.77;;;3.30;99.90;;;4.21;100.00;99468.84;4770890;30;20635;-59
2020/12/10 02:49:45;;;;;;;53.57;25.27;;;3.30;99.90;;;4.28;100.00;99458.25;4770766;30;20252;-59
2020/12/10 02:52:12;;;;;;;51.10;23.60;;;3.30;99.90;;;4.19;100.00;99457.56;4770909;30;20237;-58
2020/12/10 02:54:39;;;;;;;53.20;25.73;;;3.30;99.90;;;4.09;100.00;99451.78;4770656;30;20759;-59
2020/12/10 02:57:06;;;;;;;46.83;24.53;;;3.20;99.90;;;4.19;100.00;99446.91;4770868;30;20316;-59
2020/12/10 02:59:34;;;;;;;50.53;24.63;;;3.30;99.90;;;4.49;100.00;99442.97;4771001;30;20360;-59
2020/12/10 03:02:02;;;;;;;45.90;23.27;;;3.30;99.90;;;4.17;100.00;99453.44;4758592;30;20280;-59
2020/12/10 03:04:29;;;;;;;56.57;23.93;;;3.30;99.90;;;4.32;100.00;99452.31;4753080;30;20256;-75
2020/12/10 03:06:56;;;;;;;49.77;24.60;;;3.30;99.90;;;4.31;100.00;99442.66;4753011;30;20548;-75
2020/12/10 03:09:23;;;;;;;46.17;22.77;;;3.30;99.90;;;4.21;100.00;99446.72;4752984;30;20571;-75
2020/12/10 03:11:50;;;;;;;52.27;25.03;;;3.30;99.90;;;4.24;100.00;99448.97;4753059;30;20201;-75
2020/12/10 03:14:18;;;;;;;54.03;26.27;;;3.30;99.90;;;4.04;100.00;99440.03;4752820;30;20870;-74
2020/12/10 03:16:46;;;;;;;53.00;23.27;;;3.20;99.90;;;4.27;100.00;99435.25;4753042;30;20307;-75
2020/12/10 03:19:13;;;;;;;57.60;25.83;;;3.20;99.90;;;4.30;100.00;99433.00;4752878;30;20603;-75
2020/12/10 03:21:40;;;;;;;54.50;25.50;;;3.30;99.90;;;4.13;100.00;99436.19;4752922;30;20317;-75
2020/12/10 03:24:07;;;;;;;48.77;23.90;;;3.20;99.90;;;4.11;100.00;99444.38;4752794;30;20205;-75
2020/12/10 03:26:35;;;;;;;51.23;25.43;;;3.20;99.90;;;4.08;100.00;99435.97;4752862;30;20236;-74
2020/12/10 03:29:02;;;;;;;56.93;25.20;;;3.20;99.90;;;4.22;100.00;99435.84;4752914;30;20301;-76
2020/12/10 03:31:29;;;;;;;55.57;24.60;;;3.20;99.90;;;4.34;100.00;99428.94;4752842;30;20208;-75
2020/12/10 03:33:58;;;;;;;56.30;26.57;;;3.20;99.90;;;4.17;100.00;99418.81;4752703;30;20211;-74
2020/12/10 03:36:25;;;;;;;55.17;25.60;;;3.20;99.90;;;4.29;100.00;99419.88;4752382;30;20652;-75
2020/12/10 03:38:52;;;;;;;56.17;25.83;;;3.30;99.90;;;4.00;100.00;99430.78;4752471;30;20584;-76
2020/12/10 03:41:20;;;;;;;63.17;28.03;;;3.20;99.90;;;4.12;100.00;99423.91;4752468;30;20239;-74
2020/12/10 03:43:47;;;;;;;57.60;26.67;;;3.20;99.90;;;3.99;100.00;99427.28;4752714;30;20215;-74
2020/12/10 03:46:14;;;;;;;60.97;26.50;;;3.20;99.90;;;3.86;100.00;99419.22;4752634;30;20301;-74
2020/12/10 03:48:42;;;;;;;59.93;27.93;;;3.10;99.90;;;3.95;100.00;99425.22;4752608;30;20270;-74
2020/12/10 03:51:10;;;;;;;62.73;28.73;;;3.10;99.90;;;4.05;100.00;99421.19;4751714;30;20256;-75
2020/12/10 03:53:37;;;;;;;56.90;26.57;;;3.10;99.90;;;3.91;100.00;99427.44;4752522;30;20300;-74
2020/12/10 03:56:04;;;;;;;53.93;25.97;;;3.10;99.90;;;3.75;100.00;99425.91;4752391;30;20299;-75
2020/12/10 03:58:31;;;;;;;62.73;27.90;;;3.00;99.90;;;3.78;100.00;99424.72;4752398;30;20212;-74
2020/12/10 04:00:58;;;;;;;59.23;26.80;;;3.00;99.90;;;3.73;100.00;99421.81;4756264;30;20231;-74
2020/12/10 04:03:26;;;;;;;56.37;25.33;;;3.00;99.90;;;3.93;100.00;99420.09;4770022;30;20192;-75
2020/12/10 04:05:53;;;;;;;57.20;26.60;;;3.00;99.90;;;4.03;100.00;99412.56;4769449;30;20693;-74
2020/12/10 04:08:21;;;;;;;54.37;24.77;;;3.00;99.90;;;3.91;100.00;99421.31;4769806;30;20291;-74
2020/12/10 04:10:48;;;;;;;60.73;26.57;;;3.00;99.90;;;4.05;100.00;99425.69;4769677;30;20266;-76
2020/12/10 04:13:15;;;;;;;57.33;26.53;;;3.00;99.90;;;4.05;100.00;99437.19;4769988;30;20629;-76
2020/12/10 04:15:43;;;;;;;53.77;25.70;;;3.10;99.90;;;3.99;100.00;99437.16;4770098;30;20241;-74
2020/12/10 04:18:10;;;;;;;55.43;26.07;;;3.10;99.90;;;3.99;100.00;99434.47;4769945;30;20300;-73
2020/12/10 04:20:37;;;;;;;53.53;26.23;;;3.10;99.90;;;4.10;100.00;99431.25;4769556;30;20826;-74
2020/12/10 04:23:04;;;;;;;57.50;26.23;;;3.10;99.90;;;4.27;100.00;99437.91;4769800;30;20212;-75
2020/12/10 04:25:32;;;;;;;59.83;27.03;;;3.20;99.90;;;4.27;100.00;99437.91;4769790;30;20303;-74
2020/12/10 04:27:59;;;;;;;58.47;27.03;;;3.20;99.90;;;4.05;100.00;99436.34;4769657;30;20666;-73
2020/12/10 04:30:27;;;;;;;55.43;24.93;;;3.20;99.90;;;3.99;100.00;99434.47;4769860;30;20238;-75
2020/12/10 04:32:54;;;;;;;55.70;26.47;;;3.10;99.90;;;4.19;100.00;99435.41;4769504;30;20220;-74
2020/12/10 04:35:21;;;;;;;59.13;27.20;;;3.10;99.90;;;4.05;100.00;99428.34;4769821;30;20294;-74
2020/12/10 04:37:49;;;;;;;58.43;26.90;;;3.10;99.90;;;4.01;100.00;99430.59;4769410;30;20215;-74
2020/12/10 04:40:16;;;;;;;56.67;26.60;;;3.10;99.90;;;4.08;100.00;99428.78;4769628;30;20246;-75
2020/12/10 04:42:46;;;;;;;53.37;25.67;;;3.10;99.90;;;4.00;100.00;99422.78;4769488;30;20335;-75
2020/12/10 04:45:14;;;;;;;55.77;25.10;;;3.00;99.90;;;4.00;100.00;99431.63;4769739;30;20202;-75
2020/12/10 04:47:42;;;;;;;53.67;24.50;;;3.00;99.90;;;3.84;100.00;99423.91;4769545;30;20300;-75
2020/12/10 04:50:18;;;;;;;60.07;26.53;;;3.00;99.90;;;3.97;100.00;99421.38;4769289;30;20218;-77
2020/12/10 04:52:45;;;;;;;58.37;25.97;;;3.00;99.90;;;3.82;100.00;99419.81;4769690;30;20283;-75
2020/12/10 04:55:12;;;;;;;56.33;26.00;;;3.00;99.90;;;3.92;100.00;99423.78;4769392;30;20571;-75
2020/12/10 04:57:42;;;;;;;61.90;26.67;;;3.00;99.90;;;4.08;100.00;99418.13;4769676;30;20308;-75
2020/12/10 05:00:14;;;;;;;57.53;26.67;;;3.00;99.90;;;4.08;100.00;99418.13;4769777;30;20280;-75
2020/12/10 05:02:45;;;;;;;59.73;25.23;;;3.10;99.90;;;4.02;100.00;99416.28;4771657;30;20280;-75
2020/12/10 05:05:28;;;;;;;56.97;25.13;;;3.00;99.90;;;3.98;100.00;99416.84;4773160;30;20223;-74
2020/12/10 05:07:57;;;;;;;56.90;25.87;;;3.00;99.90;;;3.93;100.00;99422.75;4772820;30;20220;-73
2020/12/10 05:10:25;;;;;;;51.93;24.60;;;3.00;99.90;;;3.69;100.00;99424.03;4772693;30;20216;-75
2020/12/10 05:13:06;;;;;;;53.67;25.70;;;3.00;99.90;;;4.08;100.00;99430.63;4772861;30;20208;-75
2020/12/10 05:15:38;;;;;;;55.10;25.80;;;3.00;99.90;;;3.98;100.00;99433.66;4772699;30;20287;-75
2020/12/10 05:18:07;;;;;;;52.07;26.30;;;3.00;99.90;;;4.06;100.00;99430.03;4772870;30;20207;-77
2020/12/10 05:20:44;;;;;;;50.13;24.47;;;3.10;99.90;;;4.01;100.00;99433.25;4772840;30;20239;-75
2020/12/10 05:23:15;;;;;;;52.73;24.27;;;3.10;99.90;;;3.84;100.00;99437.25;4772721;30;20281;-76
2020/12/10 05:25:50;;;;;;;46.40;23.40;;;3.00;99.90;;;3.94;100.00;99440.38;4772425;30;20205;-75
2020/12/10 05:28:18;;;;;;;48.83;23.27;;;3.00;99.90;;;3.73;100.00;99438.63;4772382;30;20729;-75
2020/12/10 05:31:01;;;;;;;51.60;24.57;;;3.00;99.90;;;3.88;100.00;99441.16;4772711;30;20274;-74
2020/12/10 05:33:29;;;;;;;49.23;23.90;;;3.00;99.90;;;3.80;100.00;99441.31;4772454;30;20258;-75
2020/12/10 05:36:08;;;;;;;48.00;23.27;;;3.00;99.90;;;3.82;100.00;99436.63;4772532;30;20220;-75
2020/12/10 05:39:03;;;;;;;49.10;23.53;;;3.00;99.90;;;4.02;100.00;99426.94;4772390;30;20569;-76
2020/12/10 05:41:33;;;;;;;48.50;23.70;;;3.00;99.90;;;4.02;100.00;99439.41;4772095;30;20677;-74
2020/12/10 05:44:15;;;;;;;45.60;24.77;;;3.00;99.90;;;3.73;100.00;99451.94;4772464;30;20199;-74
2020/12/10 05:46:44;;;;;;;43.53;23.70;;;2.90;99.90;;;3.72;100.00;99449.47;4771958;30;20202;-76
2020/12/10 05:49:12;;;;;;;47.57;23.33;;;2.90;99.90;;;3.69;100.00;99444.50;4772292;30;20273;-75
2020/12/10 05:51:44;;;;;;;43.13;22.13;;;2.90;99.90;;;3.70;100.00;99446.97;4771775;30;20294;-74
2020/12/10 05:54:14;;;;;;;45.97;22.97;;;2.80;99.90;;;3.72;100.00;99449.47;4771904;30;20228;-76
2020/12/10 05:56:55;;;;;;;45.53;23.50;;;2.80;99.90;;;3.64;100.00;99452.25;4771690;30;20303;-76
2020/12/10 05:59:23;;;;;;;48.77;23.50;;;2.80;99.90;;;3.58;100.00;99453.88;4771875;30;20597;-75
2020/12/10 06:01:53;;;;;;;43.67;21.97;;;2.80;99.90;;;3.76;100.00;99461.34;4761036;30;20300;-75
2020/12/10 06:04:22;;;;;;;41.80;21.73;;;2.80;99.90;;;3.67;100.00;99454.50;4754107;30;20218;-76
2020/12/10 06:06:52;;;;;;;44.80;23.00;;;2.80;99.90;;;3.71;100.00;99447.81;4753914;30;20302;-76
2020/12/10 06:09:20;;;;;;;43.00;22.10;;;2.80;99.90;;;3.66;100.00;99444.91;4753656;30;20755;-75
2020/12/10 06:11:48;;;;;;;44.17;22.33;;;2.80;99.90;;;3.68;100.00;99449.03;4753804;30;20341;-73
2020/12/10 06:14:15;;;;;;;48.20;23.43;;;2.80;99.90;;;3.70;100.00;99446.16;4753686;30;20255;-76
2020/12/10 06:16:43;;;;;;;45.13;22.83;;;2.80;99.90;;;3.71;100.00;99445.13;4753736;30;20263;-75
2020/12/10 06:19:13;;;;;;;45.73;21.87;;;2.80;99.90;;;3.46;100.00;99444.75;4753991;30;20216;-75
2020/12/10 06:21:43;;;;;;;44.20;22.47;;;2.70;99.90;;;3.60;100.00;99441.16;4753529;30;20324;-77
2020/12/10 06:24:35;;;;;;;41.63;21.47;;;2.70;99.90;;;3.56;100.00;99447.91;4753274;30;20270;-76
2020/12/10 06:27:28;;;;;;;45.53;22.27;;;2.70;99.90;;;3.41;100.00;99443.66;4753528;30;20207;-76
2020/12/10 06:30:17;;;;;;;44.63;22.63;;;2.70;99.90;;;3.57;100.00;99449.53;4753466;30;20292;-75
2020/12/10 06:32:47;;;;;;;44.63;23.03;;;2.70;99.90;;;3.67;100.00;99441.19;4753270;30;20214;-76
2020/12/10 06:35:34;;;;;;;49.27;24.20;;;2.70;99.90;;;3.83;100.00;99451.59;4753380;30;20834;-75
2020/12/10 06:38:03;;;;;;;46.30;23.47;;;2.80;99.90;;;3.90;99.86;99454.28;4753157;30;20237;-71
2020/12/10 06:40:36;;;;;;;43.47;22.10;;;2.80;99.90;;;3.47;100.00;99450.88;4753148;30;20259;-76
2020/12/10 06:43:05;;;;;;;43.80;21.17;;;2.80;99.90;;;3.68;100.00;99451.69;4753430;30;20213;-76
2020/12/10 06:45:35;;;;;;;44.80;21.67;;;2.80;99.90;;;3.74;100.00;99453.56;4753462;30;20216;-77
2020/12/10 06:48:05;;;;;;;45.30;23.67;;;2.80;99.90;;;3.79;100.00;99455.63;4753471;30;20194;-76
2020/12/10 06:50:37;;;;;;;45.17;23.43;;;2.80;99.90;;;3.75;100.00;99449.88;4753155;30;20736;-76
2020/12/10 06:53:15;;;;;;;41.40;22.60;;;2.80;99.90;;;3.61;100.00;99445.47;4753236;30;20325;-76
2020/12/10 06:56:09;;;;;;;43.33;22.20;;;2.80;99.90;;;3.46;100.00;99443.91;4753446;30;20640;-77
2020/12/10 06:58:51;;;;;;;42.57;20.67;;;2.80;99.90;;;3.77;100.00;99451.53;4753059;30;20201;-77
2020/12/10 07:01:27;;;;;;;43.17;22.70;;;2.80;99.90;;;3.90;100.00;99457.78;4753123;30;20339;-75
2020/12/10 07:04:22;;;;;;;49.47;24.07;;;2.80;99.90;;;3.73;100.00;99462.59;4752962;30;20203;-77
2020/12/10 07:07:17;;;;;;;45.67;22.77;;;2.80;99.90;;;3.86;100.00;99455.72;4752742;30;20234;-77
2020/12/10 07:09:57;;;;;;;42.70;21.63;;;2.90;99.90;;;3.92;100.00;99455.75;4753136;30;20202;-77
2020/12/10 07:12:26;;;;;;;44.47;22.80;;;2.90;99.90;;;3.66;100.00;99452.88;4752665;30;20307;-69
2020/12/10 07:15:11;;;;;;;45.27;22.80;;;2.90;99.90;;;3.57;100.00;99451.38;4752489;30;20270;-72
2020/12/10 07:17:38;;;;;;;42.73;24.03;;;2.80;99.90;;;3.60;100.00;99453.66;4752521;30;20582;-71
2020/12/10 07:20:06;;;;;;;48.03;24.33;;;2.80;99.90;;;3.58;100.00;99453.88;4752421;30;20211;-73
2020/12/10 07:22:34;;;;;;;45.30;24.70;;;2.70;99.90;;;3.53;100.00;99450.97;4752504;30;20287;-75
2020/12/10 07:25:01;;;;;;;54.40;25.27;;;2.70;99.90;;;3.88;100.00;99453.66;4753751;30;20297;-63
2020/12/10 07:27:28;;;;;;;56.13;25.57;;;2.80;99.90;;;3.87;100.00;99462.69;4767800;30;20308;-63
2020/12/10 07:29:55;;;;;;;58.03;25.80;;;2.80;99.90;;;3.56;100.00;99460.38;4768287;30;20224;-62
2020/12/10 07:32:23;;;;;;;55.63;25.23;;;2.80;99.90;;;3.68;100.00;99462.34;4768191;30;20295;-62
2020/12/10 07:34:50;;;;;;;55.33;24.53;;;2.70;99.90;;;3.66;100.00;99463.53;4768553;30;21372;-62
2020/12/10 07:37:24;;;;;;;52.90;24.90;;;2.70;99.90;;;3.64;100.00;99454.91;4767979;30;20766;-70
2020/12/10 07:39:52;;;;;;;57.10;25.20;;;2.70;99.90;;;3.46;100.00;99459.88;4768067;30;20193;-72
2020/12/10 07:42:20;;;;;;;54.70;25.17;;;2.70;99.90;;;3.66;100.00;99451.06;4768174;30;20238;-73
2020/12/10 07:44:47;;;;;;;51.97;24.67;;;2.60;99.90;;;3.71;100.00;99456.63;4768213;30;20263;-70
2020/12/10 07:47:14;;;;;;;53.80;23.70;;;2.70;99.90;;;3.49;100.00;99454.16;4768005;30;20221;-73
2020/12/10 07:49:42;;;;;;;54.63;24.13;;;2.60;99.90;;;3.56;100.00;99455.88;4768148;30;20213;-73
2020/12/10 07:52:11;;;;;;;55.13;24.03;;;2.60;99.90;;;3.42;100.00;99464.75;4767612;30;20211;-73
2020/12/10 07:54:46;;;;;;;54.33;24.53;;;2.60;99.90;;;3.64;100.00;99460.22;4767721;30;20662;-73
2020/12/10 07:57:39;;;;;;;56.47;25.27;;;2.60;99.90;;;3.39;100.00;99466.97;4767855;30;20253;-67
2020/12/10 08:00:10;;;;;;;59.97;25.30;;;2.60;99.90;;;3.51;100.00;99463.63;4767393;30;20656;-68
2020/12/10 08:03:27;;;;;;;58.07;24.73;;;2.60;99.90;;;3.42;100.00;99469.25;4751144;30;20771;-69
2020/12/10 08:06:04;;;;;;;55.17;25.30;;;2.60;99.90;;;3.33;100.00;99467.75;4695280;30;20202;-70
2020/12/10 08:08:39;;;;;;;55.77;24.03;;;2.50;99.90;;;3.35;100.00;99468.38;4741001;30;20294;-69
2020/12/10 08:11:12;;;;;;;54.23;23.87;;;2.50;99.90;;;3.72;100.00;99468.91;4749610;30;20246;-78
2020/12/10 08:13:58;;;;;;;54.43;24.50;;;2.70;99.90;;;3.49;100.00;99456.84;4749708;30;20279;-68
2020/12/10 08:16:38;;;;;;;59.37;23.70;;;2.60;99.90;;;3.50;100.00;99459.31;4749692;30;20286;-66
2020/12/10 08:19:17;;;;;;;48.37;22.23;;;2.60;99.90;;;3.33;100.00;99465.09;4749925;30;20223;-66
2020/12/10 08:21:46;;;;;;;53.60;24.60;;;2.50;99.90;;;3.42;100.00;99464.75;4749738;30;20224;-69
2020/12/10 08:24:16;;;;;;;56.97;23.77;;;2.50;99.90;;;3.45;100.00;99459.06;4749562;30;20667;-65
2020/12/10 08:26:58;;;;;;;51.57;24.23;;;2.50;99.90;;;3.38;100.00;99458.16;4749575;30;20296;-66
2020/12/10 08:29:26;;;;;;;56.63;23.83;;;2.50;99.90;;;3.40;100.00;99461.47;4750028;30;20200;-65
2020/12/10 08:32:06;;;;;;;57.17;23.90;;;2.50;99.90;;;3.48;100.00;99456.00;4749972;30;20270;-66
2020/12/10 08:34:34;;;;;;;52.70;24.67;;;2.60;99.90;;;3.49;100.00;99455.00;4750410;30;20199;-78
2020/12/10 08:37:07;;;;;;;49.23;22.97;;;2.60;99.90;;;3.58;100.00;99453.03;4752821;30;20216;-77
2020/12/10 08:39:35;;;;;;;50.67;24.10;;;2.60;99.90;;;3.82;100.00;99449.94;4753124;30;20675;-60
2020/12/10 08:42:04;;;;;;;55.20;24.77;;;2.70;99.90;;;3.69;100.00;99447.16;4752936;30;20336;-59
2020/12/10 08:44:45;;;;;;;46.60;23.93;;;2.70;99.90;;;3.80;100.00;99438.66;4753187;30;20617;-59
2020/12/10 08:47:26;;;;;;;50.93;22.93;;;2.80;99.90;;;3.44;100.00;99444.09;4753136;30;20192;-56
2020/12/10 08:50:24;;;;;;;48.73;21.60;;;2.70;99.90;;;3.58;100.00;99437.06;4753124;30;20269;-59
2020/12/10 08:53:06;;;;;;;55.03;22.53;;;2.70;99.90;;;3.26;100.00;99445.56;4752970;30;20685;-59
2020/12/10 08:55:39;;;;;;;49.77;22.87;;;2.60;99.90;;;3.33;100.00;99449.13;4752509;30;20198;-59
2020/12/10 08:58:07;;;;;;;52.30;22.43;;;2.60;99.90;;;3.47;100.00;99448.22;4753156;30;20279;-59
2020/12/10 09:00:38;;;;;;;48.70;22.23;;;2.60;99.90;;;3.54;100.00;99457.09;4753892;30;20217;-59
2020/12/10 09:03:06;;;;;;;46.93;21.93;;;2.60;99.90;;;3.50;100.00;99458.50;4770439;30;20704;-69
2020/12/10 09:05:33;;;;;;;48.30;22.97;;;2.60;99.90;;;3.23;100.00;99460.06;4770762;30;20295;-69
2020/12/10 09:08:00;;;;;;;49.87;22.13;;;2.50;99.90;;;3.16;100.00;99461.84;4770322;30;20646;-63
2020/12/10 09:10:30;;;;;;;51.13;23.47;;;2.50;99.90;;;3.20;100.00;99465.78;4770527;30;20283;-74
2020/12/10 09:12:59;;;;;;;56.27;23.83;;;2.40;99.90;;;3.30;100.00;99462.78;4770423;30;20203;-74
2020/12/10 09:15:41;;;;;;;55.27;23.07;;;2.50;99.90;;;3.58;100.00;99451.19;4770588;30;20231;-74
2020/12/10 09:18:10;;;;;;;51.47;23.47;;;2.50;99.90;;;3.52;100.00;99454.63;4770849;30;20208;-73
2020/12/10 09:20:37;;;;;;;50.90;23.37;;;2.50;99.90;;;3.21;100.00;99463.94;4770193;30;20757;-73
2020/12/10 09:23:05;;;;;;;51.63;23.53;;;2.50;99.90;;;3.36;100.00;99454.06;4755200;30;20237;-64
2020/12/10 09:25:34;;;;;;;59.60;25.03;;;2.40;99.90;;;3.09;100.00;99455.66;4752236;30;20211;-63
2020/12/10 09:28:02;;;;;;;53.03;24.00;;;2.40;99.90;;;3.24;100.00;99458.25;4752330;30;20216;-64
2020/12/10 09:30:31;;;;;;;49.67;22.40;;;2.40;99.90;;;3.35;100.00;99465.69;4752104;30;20682;-64
2020/12/10 09:33:02;;;;;;;48.87;22.70;;;2.50;99.90;;;3.34;100.00;99462.25;4752188;30;20213;-66
2020/12/10 09:35:30;;;;;;;47.80;22.43;;;2.50;99.90;;;3.36;100.00;99470.88;4752591;30;20206;-66
2020/12/10 09:38:01;;;;;;;48.40;23.13;;;2.60;99.90;;;3.34;100.00;99454.25;4752379;30;20222;-66
2020/12/10 09:40:29;;;;;;;46.37;22.07;;;2.50;99.90;;;3.50;100.00;99455.84;4752326;30;20196;-66
2020/12/10 09:42:57;;;;;;;45.97;22.37;;;2.50;99.90;;;3.66;100.00;99452.88;4751805;30;20290;-74
2020/12/10 09:45:25;;;;;;;47.17;23.20;;;2.60;99.90;;;3.67;100.00;99449.19;4752369;30;20275;-73
2020/12/10 09:47:55;;;;;;;47.67;22.70;;;2.70;99.90;;;3.50;100.00;99442.53;4751171;30;20193;-72
2020/12/10 09:50:25;;;;;;;41.10;21.97;;;2.60;99.90;;;3.46;100.00;99443.91;4752266;30;20307;-67
2020/12/10 09:53:05;;;;;;;45.13;22.53;;;2.60;99.90;;;3.46;100.00;99449.25;4749488;30;20217;-63
2020/12/10 09:58:22;;;;;;;43.33;21.23;;;2.70;99.90;;;3.47;100.00;99435.72;4727416;30;20707;-67
2020/12/10 10:00:50;;;;;;;40.57;21.13;;;2.60;99.90;;;3.54;100.00;99431.28;4753476;30;20299;-59
2020/12/10 10:03:22;;;;;;;39.40;20.33;;;2.60;99.90;;;3.39;100.00;99437.72;4768528;30;20220;-59
2020/12/10 10:05:56;;;;;;;44.37;21.50;;;2.60;99.90;;;3.42;100.00;99439.97;4768678;30;20224;-70
2020/12/10 10:08:27;;;;;;;41.20;21.30;;;2.60;99.90;;;3.49;100.00;99439.03;4768407;30;20265;-63
2020/12/10 10:10:56;;;;;;;39.13;19.33;;;2.60;99.90;;;3.42;100.00;99445.31;4769356;30;20200;-65
2020/12/10 10:13:24;;;;;;;42.67;21.30;;;2.60;99.90;;;3.68;100.00;99437.53;4769657;30;20231;-68
2020/12/10 10:15:52;;;;;;;38.27;20.23;;;2.60;99.90;;;3.77;100.00;99436.38;4769423;30;20662;-69
2020/12/10 10:18:20;;;;;;;42.00;21.00;;;2.70;99.90;;;3.87;99.91;99442.19;4769766;30;20300;-68
2020/12/10 10:20:48;;;;;;;42.20;20.70;;;2.80;99.90;;;3.88;98.94;99437.66;4769004;30;20216;-67
2020/12/10 10:23:17;;;;;;;35.77;19.73;;;2.80;99.90;;;3.78;98.19;99430.03;4769076;30;20244;-66
2020/12/10 10:25:45;;;;;;;37.90;20.00;;;2.80;99.90;;;3.92;98.35;99421.13;4768990;30;20318;-68
2020/12/10 10:28:13;;;;;;;36.87;19.33;;;2.90;99.90;;;3.73;99.44;99425.31;4769398;30;20274;-66
2020/12/10 10:30:41;;;;;;;38.23;19.23;;;2.80;99.90;;;3.91;98.85;99416.78;4769094;30;20576;-64